createdAt,value
2023-02-09T00:03:42.678Z,25.39
2023-02-09T00:08:49.864Z,25.29
2023-02-09T00:13:57.010Z,25.08
2023-02-09T00:19:04.186Z,24.88
2023-02-09T00:24:11.428Z,24.71
2023-02-09T00:29:18.677Z,24.51
2023-02-09T00:34:25.830Z,24.34
2023-02-09T00:39:33.359Z,24.11
2023-02-09T00:44:40.559Z,23.96
2023-02-09T00:49:47.799Z,23.79
2023-02-09T00:54:55.104Z,23.59
2023-02-09T01:00:02.263Z,23.40
2023-02-09T01:05:09.468Z,23.27
2023-02-09T01:10:16.635Z,23.11
2023-02-09T01:15:23.818Z,22.97
2023-02-09T01:20:31.214Z,22.81
2023-02-09T01:25:38.524Z,22.72
2023-02-09T01:30:46.047Z,22.61
2023-02-09T01:35:52.856Z,22.46
2023-02-09T01:41:00.166Z,22.34
2023-02-09T01:46:07.338Z,22.16
2023-02-09T01:51:14.717Z,22.04
2023-02-09T01:56:21.942Z,21.82
2023-02-09T02:01:29.323Z,21.72
2023-02-09T02:06:36.474Z,21.53
2023-02-09T02:11:43.796Z,21.38
2023-02-09T02:16:51.076Z,21.25
2023-02-09T02:21:58.439Z,21.14
2023-02-09T02:27:05.678Z,21.04
2023-02-09T02:32:12.809Z,20.92
2023-02-09T02:37:20.032Z,20.77
2023-02-09T02:42:27.326Z,20.71
2023-02-09T02:47:34.573Z,20.58
2023-02-09T02:52:41.751Z,20.48
2023-02-09T02:57:49.241Z,20.39
2023-02-09T03:02:56.422Z,20.28
2023-02-09T03:08:03.638Z,20.21
2023-02-09T03:13:10.955Z,20.16
2023-02-09T03:18:18.245Z,20.25
2023-02-09T03:23:25.486Z,20.31
2023-02-09T03:28:33.061Z,20.34
2023-02-09T03:33:40.380Z,20.32
2023-02-09T03:38:47.665Z,20.30
2023-02-09T03:43:55.024Z,20.29
2023-02-09T03:49:02.269Z,20.21
2023-02-09T03:54:09.585Z,20.15
2023-02-09T03:59:16.785Z,20.09
2023-02-09T04:04:23.942Z,20.00
2023-02-09T04:09:31.116Z,19.92
2023-02-09T04:14:38.322Z,19.77
2023-02-09T04:19:45.581Z,19.62
2023-02-09T04:24:52.792Z,19.53
2023-02-09T04:30:00.040Z,19.44
2023-02-09T04:35:07.176Z,19.31
2023-02-09T04:40:14.397Z,19.26
2023-02-09T04:45:21.615Z,19.33
2023-02-09T04:50:28.764Z,19.42
2023-02-09T04:55:36.093Z,19.44
2023-02-09T05:00:43.709Z,19.48
2023-02-09T05:05:50.508Z,19.47
2023-02-09T05:10:58.645Z,19.50
2023-02-09T05:16:05.962Z,19.48
2023-02-09T05:21:13.036Z,19.44
2023-02-09T05:26:20.375Z,19.42
2023-02-09T05:31:27.863Z,19.39
2023-02-09T05:36:34.847Z,19.36
2023-02-09T05:41:42.036Z,19.32
2023-02-09T05:46:49.219Z,19.29
2023-02-09T05:51:56.344Z,19.23
2023-02-09T05:57:03.496Z,19.18
2023-02-09T06:02:10.767Z,19.08
2023-02-09T06:07:17.871Z,18.98
2023-02-09T06:12:25.100Z,18.95
2023-02-09T06:17:32.397Z,18.98
2023-02-09T06:22:39.626Z,18.98
2023-02-09T06:27:46.990Z,18.98
2023-02-09T06:32:54.245Z,18.98
2023-02-09T06:38:01.412Z,18.96
2023-02-09T06:43:08.694Z,18.96
2023-02-09T06:48:15.982Z,18.93
2023-02-09T06:53:23.159Z,18.91
2023-02-09T06:58:30.312Z,18.84
2023-02-09T07:03:37.556Z,18.83
2023-02-09T07:08:44.805Z,18.82
2023-02-09T07:13:51.959Z,18.80
2023-02-09T07:19:00.370Z,18.80
2023-02-09T07:24:06.602Z,18.76
2023-02-09T07:29:13.798Z,18.73
2023-02-09T07:34:21.027Z,18.66
2023-02-09T07:39:28.182Z,18.65
2023-02-09T07:44:35.359Z,18.63
2023-02-09T07:49:42.591Z,18.63
2023-02-09T07:54:50.324Z,18.63
2023-02-09T07:59:57.521Z,18.82
2023-02-09T08:05:05.097Z,19.09
2023-02-09T08:10:12.089Z,19.17
2023-02-09T08:15:19.276Z,19.38
2023-02-09T08:20:26.490Z,19.59
2023-02-09T08:25:33.640Z,19.90
2023-02-09T08:30:40.865Z,20.18
2023-02-09T08:35:48.398Z,20.41
2023-02-09T08:40:55.209Z,20.60
2023-02-09T08:46:02.485Z,20.69
2023-02-09T08:51:09.589Z,20.86
2023-02-09T08:56:16.761Z,21.00
2023-02-09T09:01:24.016Z,21.11
2023-02-09T09:06:31.177Z,21.24
2023-02-09T09:11:38.306Z,21.36
2023-02-09T09:16:45.566Z,21.48
2023-02-09T09:21:52.790Z,21.59
2023-02-09T09:26:59.962Z,21.42
2023-02-09T09:32:07.233Z,21.53
2023-02-09T09:37:14.370Z,21.63
2023-02-09T09:42:21.551Z,21.66
2023-02-09T09:47:28.755Z,21.64
2023-02-09T09:52:36.012Z,21.62
2023-02-09T09:57:43.176Z,21.53
2023-02-09T10:02:50.376Z,21.49
2023-02-09T10:07:57.594Z,21.40
2023-02-09T10:13:08.633Z,21.33
2023-02-09T10:18:16.521Z,21.29
2023-02-09T10:23:23.863Z,21.19
2023-02-09T10:28:36.474Z,21.15
2023-02-09T10:33:43.727Z,21.10
2023-02-09T10:38:51.106Z,21.02
2023-02-09T10:43:58.299Z,20.95
2023-02-09T10:49:05.500Z,20.87
2023-02-09T10:54:12.726Z,20.80
2023-02-09T10:59:19.925Z,20.71
2023-02-09T11:04:27.420Z,20.66
2023-02-09T11:09:34.449Z,20.61
2023-02-09T11:14:41.650Z,20.54
2023-02-09T11:19:48.927Z,20.50
2023-02-09T11:24:56.193Z,20.43
2023-02-09T11:30:03.349Z,20.37
2023-02-09T11:35:10.632Z,20.33
2023-02-09T11:40:17.859Z,20.30
2023-02-09T11:45:24.988Z,20.24
2023-02-09T11:50:32.169Z,20.17
2023-02-09T11:55:39.396Z,20.15
2023-02-09T12:00:54.716Z,20.11
2023-02-09T12:05:53.793Z,20.06
2023-02-09T12:11:01.072Z,20.06
2023-02-09T12:16:08.291Z,20.05
2023-02-09T12:21:15.498Z,20.02
2023-02-09T12:26:22.734Z,20.01
2023-02-09T12:31:30.008Z,19.98
2023-02-09T12:36:37.154Z,19.95
2023-02-09T12:41:44.428Z,19.91
2023-02-09T12:46:51.609Z,19.87
2023-02-09T12:51:58.826Z,19.83
2023-02-09T12:57:06.081Z,19.80
2023-02-09T13:02:13.284Z,19.79
2023-02-09T13:07:20.581Z,19.76
2023-02-09T13:12:27.803Z,19.73
2023-02-09T13:17:35.125Z,19.69
2023-02-09T13:22:42.295Z,19.68
2023-02-09T13:27:49.524Z,19.66
2023-02-09T13:32:56.706Z,19.63
2023-02-09T13:38:03.880Z,19.59
2023-02-09T13:43:11.111Z,19.58
2023-02-09T13:48:18.895Z,19.57
2023-02-09T13:53:26.126Z,19.59
2023-02-09T13:58:33.376Z,19.57
2023-02-09T14:03:47.036Z,19.56
2023-02-09T14:08:47.668Z,19.54
2023-02-09T14:13:54.897Z,19.53
2023-02-09T14:19:02.067Z,19.50
2023-02-09T14:24:11.727Z,19.48
2023-02-09T14:29:18.101Z,19.47
2023-02-09T14:34:23.888Z,19.43
2023-02-09T14:39:31.062Z,19.42
2023-02-09T14:44:38.292Z,19.39
2023-02-09T14:49:45.440Z,19.33
2023-02-09T14:54:52.694Z,19.33
2023-02-09T14:59:59.919Z,19.33
2023-02-09T15:05:07.107Z,19.32
2023-02-09T15:10:14.268Z,19.36
2023-02-09T15:15:21.469Z,19.36
2023-02-09T15:20:28.658Z,19.33
2023-02-09T15:25:35.901Z,19.32
2023-02-09T15:30:43.405Z,19.33
2023-02-09T15:35:50.772Z,19.32
2023-02-09T15:40:58.498Z,19.31
2023-02-09T15:46:05.992Z,19.28
2023-02-09T15:51:13.337Z,19.25
2023-02-09T15:56:20.738Z,19.24
2023-02-09T16:01:27.975Z,19.22
2023-02-09T16:06:35.157Z,19.22
2023-02-09T16:11:42.752Z,19.16
2023-02-09T16:16:50.258Z,19.12
2023-02-09T16:21:57.398Z,19.11
2023-02-09T16:27:04.569Z,19.11
2023-02-09T16:32:12.131Z,19.09
2023-02-09T16:37:19.400Z,19.10
2023-02-09T16:42:26.618Z,19.14
2023-02-09T16:47:33.838Z,19.14
2023-02-09T16:52:41.058Z,19.15
2023-02-09T16:57:48.291Z,19.18
2023-02-09T17:02:55.494Z,19.18
2023-02-09T17:08:03.018Z,19.15
2023-02-09T17:13:10.363Z,19.17
2023-02-09T17:18:17.862Z,19.14
2023-02-09T17:23:25.279Z,19.12
2023-02-09T17:28:32.868Z,19.14
2023-02-09T17:33:40.143Z,19.28
2023-02-09T17:38:47.423Z,19.41
2023-02-09T17:43:54.902Z,19.61
2023-02-09T17:49:02.471Z,19.77
2023-02-09T17:54:11.427Z,19.97
2023-02-09T17:59:18.884Z,20.11
2023-02-09T18:04:26.841Z,20.25
2023-02-09T18:09:34.002Z,20.36
2023-02-09T18:14:41.302Z,20.49
2023-02-09T18:19:48.823Z,20.64
2023-02-09T18:24:56.523Z,20.77
2023-02-09T18:30:04.234Z,20.86
2023-02-09T18:35:11.931Z,20.96
2023-02-09T18:40:19.682Z,21.06
2023-02-09T18:45:27.387Z,21.16
2023-02-09T18:50:35.120Z,21.27
2023-02-09T18:55:42.717Z,21.35
2023-02-09T19:00:50.333Z,21.47
2023-02-09T19:05:58.082Z,21.57
2023-02-09T19:11:05.664Z,21.65
2023-02-09T19:16:13.308Z,21.76
2023-02-09T19:21:20.811Z,21.80
2023-02-09T19:26:28.607Z,21.92
2023-02-09T19:31:36.229Z,21.97
2023-02-09T19:36:43.547Z,22.06
2023-02-09T19:41:51.041Z,22.12
2023-02-09T19:46:58.787Z,22.21
2023-02-09T19:52:06.110Z,22.31
2023-02-09T19:57:13.531Z,22.36
2023-02-09T20:02:21.293Z,22.46
2023-02-09T20:07:28.888Z,22.54
2023-02-09T20:12:37.038Z,22.62
2023-02-09T20:17:44.469Z,22.71
2023-02-09T20:22:52.196Z,22.84
2023-02-09T20:27:59.825Z,22.98
2023-02-09T20:33:07.099Z,23.13
2023-02-09T20:38:14.640Z,23.32
2023-02-09T20:43:22.411Z,23.44
2023-02-09T20:48:30.027Z,23.55
2023-02-09T20:53:37.366Z,23.67
2023-02-09T20:58:44.504Z,23.75
2023-02-09T21:03:51.948Z,23.88
2023-02-09T21:08:59.484Z,23.96
2023-02-09T21:14:06.828Z,24.03
2023-02-09T21:19:15.407Z,24.08
2023-02-09T21:24:22.795Z,24.17
2023-02-09T21:29:30.054Z,24.25
2023-02-09T21:34:37.534Z,24.24
2023-02-09T21:39:44.924Z,24.16
2023-02-09T21:44:52.352Z,24.04
2023-02-09T21:49:59.661Z,24.06
2023-02-09T21:55:06.876Z,24.15
2023-02-09T22:00:14.046Z,24.28
2023-02-09T22:05:21.217Z,24.36
2023-02-09T22:10:28.431Z,24.48
2023-02-09T22:15:35.597Z,24.32
2023-02-09T22:20:42.782Z,24.44
2023-02-09T22:25:49.963Z,24.45
2023-02-09T22:30:57.206Z,24.46
2023-02-09T22:36:04.401Z,24.48
2023-02-09T22:41:11.630Z,24.51
2023-02-09T22:46:18.942Z,24.59
2023-02-09T22:51:26.092Z,24.64
2023-02-09T22:56:33.379Z,24.70
2023-02-09T23:01:40.612Z,24.79
2023-02-09T23:06:47.745Z,24.86
2023-02-09T23:11:54.997Z,24.97
2023-02-09T23:17:02.220Z,24.99
2023-02-09T23:22:09.393Z,25.00
2023-02-09T23:27:16.604Z,25.02
2023-02-09T23:32:23.764Z,25.01
2023-02-09T23:37:37.624Z,25.10
2023-02-09T23:42:38.170Z,25.10
2023-02-09T23:47:45.517Z,25.17
2023-02-09T23:52:52.705Z,25.21
2023-02-09T23:57:59.952Z,25.19
